Latest Weather Observations for Moree

IDN60801

Issued at 12:05 pm EST Thursday 2 October 2014 (issued every 30 minutes, with the page automatically refreshed every 10 minutes)

About weather observations | Map of weather stations | Latest weather observations for NSW | Other Formats
Station Details ID: 053115 Name: MOREE AERO Lat: -29.49 Lon: 149.85 Height: 213.0 m
Data from the previous 72 hours. | See also: Recent months at Moree
Date/Time
EST
Temp
°C
App
Temp
°C
Dew
Point
Rel
Hum
%
Delta-T
°C
Wind Press
QNH
hPa
Press
MSL
hPa
Rain
since 9 am
mm
Dir
 
Spd
km/h
Gust
km/h
Spd
kts
Gust
kts
02/11:00am 21.8 17.5 5.2 34 8.3 N 17 26 9 14 1021.2 - 0.0
02/10:30am 22.3 18.2 6.3 35 8.2 N 17 26 9 14 1021.4 - 0.0
02/10:00am 20.5 15.7 5.7 38 7.4 NNE 20 30 11 16 1021.7 - 0.0
02/09:30am 19.2 14.5 5.9 41 6.6 NE 20 32 11 17 1021.9 - 0.0
02/09:00am 18.5 13.9 5.7 43 6.3 NE 19 26 10 14 1022.1 1021.5 0.0
02/08:30am 17.1 12.2 5.1 45 5.8 NE 20 28 11 15 1022.0 - 0.0
02/08:00am 16.4 11.4 4.6 45 5.6 ENE 20 28 11 15 1022.1 - 0.0
02/07:30am 15.0 10.0 3.7 46 5.2 E 19 28 10 15 1021.8 - 0.0
02/07:00am 13.2 8.7 2.0 46 4.9 ENE 15 19 8 10 1021.5 - 0.0
02/06:30am 9.5 4.3 0.4 53 3.7 E 17 20 9 11 1021.3 - 0.0
02/06:00am 7.7 2.3 -1.1 53 3.4 E 17 22 9 12 1020.9 1020.3 0.0
02/05:30am 6.8 2.1 -1.7 54 3.2 E 13 17 7 9 1020.5 - 0.0
02/05:00am 6.8 4.5 -2.0 53 3.3 CALM 0 0 0 0 1020.1 - 0.0
02/04:30am 7.1 3.2 -1.3 55 3.2 ESE 9 13 5 7 1020.0 - 0.0
02/04:00am 6.8 2.8 -2.4 52 3.4 SSE 9 11 5 6 1019.6 - 0.0
02/03:30am 6.7 2.2 -2.9 50 3.5 S 11 13 6 7 1019.2 - 0.0
02/03:00am 6.6 1.7 -3.0 50 3.5 S 13 15 7 8 1019.3 1018.6 0.0
02/02:30am 7.4 3.7 -2.9 48 3.8 S 7 11 4 6 1019.3 - 0.0
02/02:00am 8.0 3.9 -3.1 45 4.1 SSW 9 11 5 6 1019.3 - 0.0
02/01:30am 8.5 4.4 -2.7 45 4.2 SW 9 11 5 6 1019.2 - 0.0
02/01:00am 8.7 3.9 -2.8 44 4.3 SW 13 15 7 8 1019.4 - 0.0
02/12:30am 9.1 4.2 -3.6 40 4.7 SW 13 15 7 8 1019.6 - 0.0
02/12:00am 10.3 5.7 -4.0 36 5.3 SW 11 13 6 7 1019.6 1018.9 0.0
 
Date/Time
EST
Temp
°C
App
Temp
°C
Dew
Point
Rel
Hum
%
Delta-T
°C
Wind Press
QNH
hPa
Press
MSL
hPa
Rain
since 9 am
mm
Dir
 
Spd
km/h
Gust
km/h
Spd
kts
Gust
kts
01/11:30pm 11.2 5.8 -4.9 32 5.9 SW 15 17 8 9 1019.8 - 0.0
01/11:00pm 12.0 6.6 -4.6 31 6.2 SSW 15 17 8 9 1019.9 - 0.0
01/10:30pm 12.6 6.7 -5.2 28 6.6 SSW 17 20 9 11 1019.9 - 0.0
01/10:00pm 12.9 7.4 -5.5 27 6.8 SSW 15 19 8 10 1019.8 - 0.0
01/09:30pm 13.8 7.5 -6.0 25 7.3 SW 19 22 10 12 1019.6 - 0.0
01/09:00pm 15.1 7.9 -5.5 23 7.8 SW 24 32 13 17 1019.4 1018.7 0.0
01/08:30pm 16.1 8.3 -7.2 19 8.6 WSW 26 33 14 18 1019.1 - 0.0
01/08:00pm 16.2 9.6 -6.9 20 8.6 WSW 20 26 11 14 1018.9 - 0.0
01/07:30pm 16.6 10.1 -6.4 20 8.7 WSW 20 26 11 14 1018.6 - 0.0
01/07:00pm 17.9 11.5 -6.8 18 9.4 WSW 19 28 10 15 1018.3 - 0.0
01/06:30pm 19.5 13.1 -6.9 16 10.2 WSW 19 24 10 13 1017.9 - 0.0
01/06:00pm 21.0 14.1 -6.6 15 10.9 SW 22 32 12 17 1017.5 1016.8 0.0
01/05:30pm 22.6 13.6 -8.3 12 12.0 SW 32 41 17 22 1017.1 - 0.0
01/05:00pm 23.7 14.1 -9.2 10 12.7 WSW 35 46 19 25 1016.8 - 0.0
01/04:30pm 24.5 14.8 -9.7 9 13.2 WSW 35 43 19 23 1016.4 - 0.0
01/04:00pm 25.3 15.6 -10.3 9 13.7 SW 35 43 19 23 1016.3 - 0.0
01/03:30pm 25.5 15.7 -11.0 8 13.9 WSW 35 43 19 23 1016.1 - 0.0
01/03:21pm 25.9 15.7 -11.0 8 14.1 SW 37 43 20 23 1016.1 - 0.0
01/03:00pm 25.8 16.5 -12.2 7 14.2 W 32 44 17 24 1016.3 1015.7 0.0
01/02:30pm 26.1 17.0 -10.1 8 14.1 SW 32 46 17 25 1016.3 - 0.0
01/02:05pm 26.5 17.3 -11.6 7 14.5 WSW 32 50 17 27 1016.4 - 0.0
01/02:00pm 26.4 16.5 -12.1 7 14.5 WSW 35 50 19 27 1016.5 - 0.0
01/01:42pm 26.4 16.5 -13.0 6 14.6 WSW 35 54 19 29 1016.6 - 0.0
01/01:30pm 26.4 16.1 -13.0 6 14.6 SW 37 50 20 27 1016.6 - 0.0
01/01:00pm 26.7 16.6 -10.8 8 14.5 WSW 37 48 20 26 1016.9 - 0.0
01/12:30pm 26.2 16.8 -11.3 7 14.3 WSW 33 46 18 25 1017.1 - 0.0
01/12:00pm 26.0 18.5 1.1 19 11.9 WSW 30 48 16 26 1017.5 1016.8 0.0
01/11:30am 24.8 17.1 2.3 23 10.9 SW 32 37 17 20 1018.0 - 0.0
01/11:00am 24.0 17.5 2.4 24 10.4 SW 26 35 14 19 1018.2 - 0.0
01/10:30am 24.1 16.5 3.0 25 10.3 SSW 32 39 17 21 1018.3 - 0.0
01/10:00am 23.6 16.0 2.7 25 10.1 SSW 32 43 17 23 1018.4 - 0.0
01/09:30am 23.6 15.9 2.4 25 10.2 SSW 32 46 17 25 1018.4 - 0.0
01/09:00am 23.1 15.8 2.4 25 9.9 SSW 30 37 16 20 1018.4 1017.7 0.0
01/08:30am 21.2 14.0 3.0 30 8.7 SSW 30 39 16 21 1018.0 - 0.0
01/08:00am 20.2 12.5 3.5 33 8.0 SW 33 41 18 22 1017.7 - 0.0
01/07:30am 20.2 12.5 2.5 31 8.3 SW 32 37 17 20 1017.1 - 0.0
01/07:00am 19.7 14.2 3.9 35 7.6 SW 22 30 12 16 1016.9 - 0.0
01/06:30am 17.0 15.5 5.2 45 5.7 SW 2 6 1 3 1016.4 - 0.0
01/06:00am 16.5 12.9 5.1 47 5.5 WSW 13 13 7 7 1016.2 1015.5 0.0
01/05:30am 16.9 14.2 5.4 46 5.6 W 9 9 5 5 1015.7 - 0.0
01/05:00am 17.9 15.4 6.5 47 5.7 WNW 9 11 5 6 1015.2 - 0.0
01/04:30am 18.3 14.7 5.2 42 6.4 NW 13 13 7 7 1014.8 - 0.0
01/04:00am 18.6 15.1 5.4 42 6.5 NW 13 15 7 8 1014.8 - 0.0
01/03:30am 19.1 15.2 5.3 40 6.8 NW 15 17 8 9 1014.7 - 0.0
01/03:00am 20.1 15.7 4.9 37 7.5 NW 17 20 9 11 1014.7 1014.0 0.0
01/02:30am 19.9 16.1 5.7 39 7.1 NW 15 19 8 10 1014.6 - 0.0
01/02:00am 18.9 16.0 6.4 44 6.3 NNW 11 13 6 7 1014.4 - 0.0
01/01:30am 17.7 16.1 6.5 48 5.6 WNW 4 9 2 5 1014.9 - 0.0
01/01:00am 18.5 15.2 6.3 45 6.1 WSW 13 17 7 9 1015.1 - 0.0
01/12:30am 20.9 18.4 6.4 39 7.4 NNW 9 13 5 7 1014.8 - 0.0
01/12:00am 21.3 18.0 6.2 37 7.7 N 13 17 7 9 1014.5 1014.1 0.0
 
Date/Time
EST
Temp
°C
App
Temp
°C
Dew
Point
Rel
Hum
%
Delta-T
°C
Wind Press
QNH
hPa
Press
MSL
hPa
Rain
since 9 am
mm
Dir
 
Spd
km/h
Gust
km/h
Spd
kts
Gust
kts
30/11:30pm 22.1 17.9 5.7 34 8.3 N 17 22 9 12 1014.6 - 0.0
30/11:00pm 22.9 18.3 5.6 32 8.8 N 19 28 10 15 1014.5 - 0.0
30/10:30pm 23.5 19.2 5.4 31 9.2 N 17 24 9 13 1014.7 - 0.0
30/10:00pm 23.8 19.5 5.3 30 9.4 N 17 22 9 12 1014.8 - 0.0
30/09:30pm 23.7 19.8 5.2 30 9.4 N 15 19 8 10 1015.0 - 0.0
30/09:00pm 24.1 20.2 5.2 29 9.6 N 15 19 8 10 1014.8 1014.4 0.0
30/08:30pm 25.1 21.4 4.5 26 10.4 N 13 17 7 9 1014.9 - 0.0
30/08:00pm 25.8 22.1 4.5 25 10.8 N 13 15 7 8 1014.7 - 0.0
30/07:30pm 26.4 23.2 5.0 25 11.0 N 11 13 6 7 1014.6 - 0.0
30/07:00pm 27.5 24.6 4.8 23 11.7 N 9 11 5 6 1014.4 - 0.0
30/06:30pm 28.1 25.6 5.0 23 12.0 N 7 11 4 6 1014.2 - 0.0
30/06:00pm 29.7 26.6 3.5 19 13.4 N 9 15 5 8 1014.0 1013.6 0.0
30/05:30pm 31.2 27.2 2.7 16 14.5 NW 13 19 7 10 1014.0 - 0.0
30/05:00pm 32.1 27.2 1.7 14 15.3 NW 17 20 9 11 1014.0 - 0.0
30/04:30pm 32.6 28.5 2.5 15 15.4 NNW 13 22 7 12 1014.0 - 0.0
30/04:00pm 32.4 27.1 2.8 15 15.2 NW 20 28 11 15 1014.0 - 0.0
30/03:30pm 32.4 30.4 2.4 15 15.3 N 2 9 1 5 1014.0 - 0.0
30/03:00pm 32.9 27.4 3.9 16 15.2 N 22 32 12 17 1014.3 1013.9 0.0
30/02:30pm 32.2 26.4 2.3 15 15.2 NNW 22 30 12 16 1014.7 - 0.0
30/02:00pm 32.5 28.1 4.8 17 14.7 N 17 28 9 15 1015.1 - 0.0
30/01:30pm 31.8 29.1 5.4 19 14.1 NW 9 24 5 13 1015.6 - 0.0
30/01:00pm 30.7 27.2 7.0 22 12.9 NNW 15 24 8 13 1016.2 - 0.0
30/12:30pm 30.6 25.9 6.2 21 13.1 N 20 32 11 17 1016.5 - 0.0
30/12:00pm 30.1 25.6 6.2 22 12.8 N 19 32 10 17 1017.1 1016.8 0.0
30/11:30am 29.9 25.8 8.8 26 11.8 N 20 30 11 16 1017.7 - 0.0
30/11:00am 28.4 24.1 9.2 30 10.7 N 22 32 12 17 1018.0 - 0.0
30/10:30am 27.3 23.6 9.6 33 9.9 NNW 19 35 10 19 1018.6 - 0.0
30/10:00am 26.0 22.7 9.6 35 9.1 N 17 28 9 15 1019.0 - 0.0
30/09:30am 24.9 21.1 9.7 38 8.4 N 20 28 11 15 1019.3 - 0.0
30/09:00am 23.5 19.3 9.6 41 7.6 N 22 30 12 16 1019.5 1019.1 0.0
30/08:30am 22.0 17.3 9.4 44 6.8 NNE 24 30 13 16 1019.4 - 0.0
30/08:00am 20.6 16.2 9.0 47 6.2 NNE 22 30 12 16 1019.2 - 0.0
30/07:30am 19.3 14.9 9.1 51 5.4 NE 22 28 12 15 1019.1 - 0.0
30/07:00am 17.1 13.0 8.8 58 4.3 NE 20 28 11 15 1018.9 - 0.0
30/06:30am 16.0 12.0 8.4 60 3.9 NE 19 24 10 13 1018.7 - 0.0
30/06:00am 15.3 11.3 8.2 62 3.6 NE 19 22 10 12 1018.5 1018.1 0.0
30/05:30am 15.5 11.8 7.8 60 3.9 NE 17 20 9 11 1018.2 - 0.0
30/05:00am 14.8 11.0 7.6 62 3.6 NE 17 20 9 11 1017.8 - 0.0
30/04:30am 14.7 11.7 7.9 63 3.4 NE 13 13 7 7 1017.8 - 0.0
30/04:00am 14.1 11.0 8.8 70 2.7 ENE 15 19 8 10 1017.3 - 0.0
30/03:30am 14.4 11.2 8.5 67 3.0 ENE 15 17 8 9 1017.2 - 0.0
30/03:00am 14.6 11.4 8.3 66 3.2 ENE 15 19 8 10 1017.1 1016.8 0.0
30/02:30am 15.3 11.7 8.2 62 3.6 ENE 17 20 9 11 1017.2 - 0.0
30/02:00am 15.0 11.0 8.3 64 3.4 ENE 19 24 10 13 1017.3 - 0.0
30/01:30am 16.0 13.0 7.7 58 4.2 E 13 17 7 9 1017.3 - 0.0
30/01:00am 16.4 13.0 7.7 56 4.4 ENE 15 17 8 9 1017.6 - 0.0
30/12:30am 16.7 13.0 7.9 56 4.5 E 17 20 9 11 1017.8 - 0.0
30/12:00am 17.1 13.0 7.7 54 4.8 E 19 24 10 13 1017.9 1017.5 0.0
 
Date/Time
EST
Temp
°C
App
Temp
°C
Dew
Point
Rel
Hum
%
Delta-T
°C
Wind Press
QNH
hPa
Press
MSL
hPa
Rain
since 9 am
mm
Dir
 
Spd
km/h
Gust
km/h
Spd
kts
Gust
kts
29/11:30pm 17.6 14.6 7.6 52 5.1 E 13 17 7 9 1018.0 - 0.0
29/11:00pm 18.1 14.6 7.0 48 5.6 E 15 17 8 9 1018.1 - 0.0
29/10:30pm 19.0 15.8 6.7 44 6.2 E 13 15 7 8 1018.1 - 0.0
29/10:00pm 19.0 15.7 6.2 43 6.4 ENE 13 17 7 9 1018.2 - 0.0
29/09:30pm 20.1 16.1 6.8 42 6.8 E 17 19 9 10 1018.1 - 0.0
29/09:00pm 20.4 17.5 6.7 41 7.0 E 11 17 6 9 1018.0 1017.6 0.0
29/08:30pm 20.5 18.2 7.3 42 6.8 E 9 15 5 8 1017.9 - 0.0
29/08:00pm 21.0 18.2 6.8 39 7.3 E 11 13 6 7 1017.7 - 0.0
29/07:30pm 22.1 19.3 6.8 37 7.9 E 11 13 6 7 1017.2 - 0.0
29/07:00pm 23.1 20.7 7.0 35 8.4 E 9 13 5 7 1016.9 - 0.0
29/06:30pm 24.2 23.7 7.9 35 8.7 CALM 0 2 0 1 1016.6 - 0.0
29/06:00pm 26.5 25.3 4.5 24 11.2 CALM 0 0 0 0 1016.3 1015.9 0.0
29/05:30pm 27.8 26.4 3.4 21 12.3 CALM 0 0 0 0 1016.0 - 0.0
29/05:00pm 28.2 26.9 3.9 21 12.4 CALM 0 7 0 4 1015.7 - 0.0
29/04:30pm 28.8 27.5 4.0 20 12.7 CALM 0 0 0 0 1015.6 - 0.0
29/04:00pm 28.7 26.5 3.1 19 12.9 NNE 4 11 2 6 1015.6 - 0.0
29/03:30pm 28.8 27.4 3.7 20 12.8 CALM 0 6 0 3 1015.7 - 0.0
29/03:00pm 28.8 25.9 2.6 18 13.1 ENE 7 17 4 9 1015.8 1015.4 0.0
29/02:30pm 28.8 26.1 2.6 18 13.1 E 6 15 3 8 1016.0 - 0.0
29/02:00pm 28.6 26.0 3.3 19 12.8 NNW 6 17 3 9 1016.3 - 0.0
29/01:30pm 27.6 24.1 3.7 21 12.1 NNW 11 20 6 11 1016.6 - 0.0
29/01:00pm 27.1 23.4 4.7 24 11.5 N 13 19 7 10 1016.9 - 0.0
29/12:30pm 27.5 24.6 4.5 23 11.8 NNE 9 24 5 13 1017.6 - 0.0

Other Formats:

Comma delimited format used in spreadsheet applications
http://www.bom.gov.au/fwo/IDN60801/IDN60801.95527.axf

JavaScript Object Notation format (JSON) in row-major order
http://www.bom.gov.au/fwo/IDN60801/IDN60801.95527.json